sensor_id;sensor_type;location;lat;lon;timestamp;temperature;humidity
65836;SHT30;52595;51.608;7.216;2023-04-25T00:01:03;6.38;88.87
65836;SHT30;52595;51.608;7.216;2023-04-25T00:03:30;6.40;88.95
65836;SHT30;52595;51.608;7.216;2023-04-25T00:05:55;6.43;88.64
65836;SHT30;52595;51.608;7.216;2023-04-25T00:08:22;6.40;88.63
65836;SHT30;52595;51.608;7.216;2023-04-25T00:10:47;6.41;88.99
65836;SHT30;52595;51.608;7.216;2023-04-25T00:13:14;6.46;89.08
65836;SHT30;52595;51.608;7.216;2023-04-25T00:15:39;6.48;88.93
65836;SHT30;52595;51.608;7.216;2023-04-25T00:18:07;6.47;89.04
65836;SHT30;52595;51.608;7.216;2023-04-25T00:20:32;6.46;89.23
65836;SHT30;52595;51.608;7.216;2023-04-25T00:22:58;6.47;89.27
65836;SHT30;52595;51.608;7.216;2023-04-25T00:25:23;6.48;89.32
65836;SHT30;52595;51.608;7.216;2023-04-25T00:27:48;6.51;89.38
65836;SHT30;52595;51.608;7.216;2023-04-25T00:30:14;6.48;89.63
65836;SHT30;52595;51.608;7.216;2023-04-25T00:32:40;6.48;89.77
65836;SHT30;52595;51.608;7.216;2023-04-25T00:35:05;6.50;89.85
65836;SHT30;52595;51.608;7.216;2023-04-25T00:37:31;6.47;89.93
65836;SHT30;52595;51.608;7.216;2023-04-25T00:39:57;6.43;90.01
65836;SHT30;52595;51.608;7.216;2023-04-25T00:42:24;6.43;90.06
65836;SHT30;52595;51.608;7.216;2023-04-25T00:44:52;6.43;90.08
65836;SHT30;52595;51.608;7.216;2023-04-25T00:47:17;6.44;90.29
65836;SHT30;52595;51.608;7.216;2023-04-25T00:49:43;6.40;90.33
65836;SHT30;52595;51.608;7.216;2023-04-25T00:52:08;6.38;90.48
65836;SHT30;52595;51.608;7.216;2023-04-25T00:54:34;6.43;90.48
65836;SHT30;52595;51.608;7.216;2023-04-25T00:56:59;6.43;90.57
65836;SHT30;52595;51.608;7.216;2023-04-25T00:59:26;6.40;90.50
65836;SHT30;52595;51.608;7.216;2023-04-25T01:01:53;6.43;90.44
65836;SHT30;52595;51.608;7.216;2023-04-25T01:04:18;6.44;90.55
65836;SHT30;52595;51.608;7.216;2023-04-25T01:06:44;6.43;90.80
65836;SHT30;52595;51.608;7.216;2023-04-25T01:09:10;6.41;90.88
65836;SHT30;52595;51.608;7.216;2023-04-25T01:11:35;6.36;91.02
65836;SHT30;52595;51.608;7.216;2023-04-25T01:14:01;6.38;91.19
65836;SHT30;52595;51.608;7.216;2023-04-25T01:16:27;6.40;91.27
65836;SHT30;52595;51.608;7.216;2023-04-25T01:18:53;6.40;91.41
65836;SHT30;52595;51.608;7.216;2023-04-25T01:21:20;6.36;91.42
65836;SHT30;52595;51.608;7.216;2023-04-25T01:23:46;6.38;91.42
65836;SHT30;52595;51.608;7.216;2023-04-25T01:26:12;6.32;91.65
65836;SHT30;52595;51.608;7.216;2023-04-25T01:28:39;6.30;91.68
65836;SHT30;52595;51.608;7.216;2023-04-25T01:31:06;6.33;91.58
65836;SHT30;52595;51.608;7.216;2023-04-25T01:33:32;6.32;91.44
65836;SHT30;52595;51.608;7.216;2023-04-25T01:35:57;6.34;91.47
65836;SHT30;52595;51.608;7.216;2023-04-25T01:38:23;6.34;91.44
65836;SHT30;52595;51.608;7.216;2023-04-25T01:40:49;6.34;91.59
65836;SHT30;52595;51.608;7.216;2023-04-25T01:43:14;6.30;91.90
65836;SHT30;52595;51.608;7.216;2023-04-25T01:45:41;6.20;92.25
65836;SHT30;52595;51.608;7.216;2023-04-25T01:48:10;6.09;92.75
65836;SHT30;52595;51.608;7.216;2023-04-25T01:50:38;6.03;92.87
65836;SHT30;52595;51.608;7.216;2023-04-25T01:53:04;6.09;92.97
65836;SHT30;52595;51.608;7.216;2023-04-25T01:55:30;6.06;92.96
65836;SHT30;52595;51.608;7.216;2023-04-25T01:57:55;6.06;92.86
65836;SHT30;52595;51.608;7.216;2023-04-25T02:00:21;6.09;92.82
65836;SHT30;52595;51.608;7.216;2023-04-25T02:02:46;6.09;92.89
65836;SHT30;52595;51.608;7.216;2023-04-25T02:05:11;6.14;92.38
65836;SHT30;52595;51.608;7.216;2023-04-25T02:07:37;6.16;92.60
65836;SHT30;52595;51.608;7.216;2023-04-25T02:10:03;6.17;92.43
65836;SHT30;52595;51.608;7.216;2023-04-25T02:12:28;6.17;92.34
65836;SHT30;52595;51.608;7.216;2023-04-25T02:14:54;6.17;92.19
65836;SHT30;52595;51.608;7.216;2023-04-25T02:17:19;6.17;91.96
65836;SHT30;52595;51.608;7.216;2023-04-25T02:19:46;6.16;91.73
65836;SHT30;52595;51.608;7.216;2023-04-25T02:22:12;6.20;91.83
65836;SHT30;52595;51.608;7.216;2023-04-25T02:24:38;6.16;91.31
65836;SHT30;52595;51.608;7.216;2023-04-25T02:27:03;6.17;91.38
65836;SHT30;52595;51.608;7.216;2023-04-25T02:29:29;6.13;91.41
65836;SHT30;52595;51.608;7.216;2023-04-25T02:31:55;6.14;91.32
65836;SHT30;52595;51.608;7.216;2023-04-25T02:34:20;6.16;91.40
65836;SHT30;52595;51.608;7.216;2023-04-25T02:36:45;6.12;91.56
65836;SHT30;52595;51.608;7.216;2023-04-25T02:39:11;6.05;91.83
65836;SHT30;52595;51.608;7.216;2023-04-25T02:41:36;6.05;91.70
65836;SHT30;52595;51.608;7.216;2023-04-25T02:44:02;6.02;91.84
65836;SHT30;52595;51.608;7.216;2023-04-25T02:46:27;6.01;91.75
65836;SHT30;52595;51.608;7.216;2023-04-25T02:48:53;5.99;91.88
65836;SHT30;52595;51.608;7.216;2023-04-25T02:51:18;5.93;92.06
65836;SHT30;52595;51.608;7.216;2023-04-25T02:53:44;5.95;92.19
65836;SHT30;52595;51.608;7.216;2023-04-25T02:56:09;5.98;92.09
65836;SHT30;52595;51.608;7.216;2023-04-25T02:58:35;5.93;92.15
65836;SHT30;52595;51.608;7.216;2023-04-25T03:01:00;5.95;92.28
65836;SHT30;52595;51.608;7.216;2023-04-25T03:03:25;5.91;92.32
65836;SHT30;52595;51.608;7.216;2023-04-25T03:05:51;5.91;92.28
65836;SHT30;52595;51.608;7.216;2023-04-25T03:08:17;5.86;92.35
65836;SHT30;52595;51.608;7.216;2023-04-25T03:10:43;5.88;92.31
65836;SHT30;52595;51.608;7.216;2023-04-25T03:13:08;5.89;92.40
65836;SHT30;52595;51.608;7.216;2023-04-25T03:15:35;5.92;92.22
65836;SHT30;52595;51.608;7.216;2023-04-25T03:18:00;5.89;92.29
65836;SHT30;52595;51.608;7.216;2023-04-25T03:20:26;5.88;92.44
65836;SHT30;52595;51.608;7.216;2023-04-25T03:22:51;5.88;92.25
65836;SHT30;52595;51.608;7.216;2023-04-25T03:25:17;5.88;92.56
65836;SHT30;52595;51.608;7.216;2023-04-25T03:27:42;5.89;92.46
65836;SHT30;52595;51.608;7.216;2023-04-25T03:30:07;5.82;92.72
65836;SHT30;52595;51.608;7.216;2023-04-25T03:32:34;5.91;92.86
65836;SHT30;52595;51.608;7.216;2023-04-25T03:34:59;5.82;93.29
65836;SHT30;52595;51.608;7.216;2023-04-25T03:37:25;5.72;94.04
65836;SHT30;52595;51.608;7.216;2023-04-25T03:39:50;5.42;93.92
65836;SHT30;52595;51.608;7.216;2023-04-25T03:42:16;5.26;94.60
65836;SHT30;52595;51.608;7.216;2023-04-25T03:44:43;5.10;95.21
65836;SHT30;52595;51.608;7.216;2023-04-25T03:47:08;4.90;94.60
65836;SHT30;52595;51.608;7.216;2023-04-25T03:49:34;4.63;94.31
65836;SHT30;52595;51.608;7.216;2023-04-25T03:51:59;4.49;94.60
65836;SHT30;52595;51.608;7.216;2023-04-25T03:54:25;4.45;95.44
65836;SHT30;52595;51.608;7.216;2023-04-25T03:56:51;4.42;95.68
65836;SHT30;52595;51.608;7.216;2023-04-25T03:59:16;4.42;95.52
65836;SHT30;52595;51.608;7.216;2023-04-25T04:01:42;4.41;95.80
65836;SHT30;52595;51.608;7.216;2023-04-25T04:04:07;4.41;96.18
65836;SHT30;52595;51.608;7.216;2023-04-25T04:06:32;4.43;95.64
65836;SHT30;52595;51.608;7.216;2023-04-25T04:08:58;4.38;96.13
65836;SHT30;52595;51.608;7.216;2023-04-25T04:11:23;4.38;96.06
65836;SHT30;52595;51.608;7.216;2023-04-25T04:13:49;4.38;96.19
65836;SHT30;52595;51.608;7.216;2023-04-25T04:16:14;4.41;95.96
65836;SHT30;52595;51.608;7.216;2023-04-25T04:18:40;4.36;95.94
65836;SHT30;52595;51.608;7.216;2023-04-25T04:21:05;4.31;95.77
65836;SHT30;52595;51.608;7.216;2023-04-25T04:23:31;4.26;95.74
65836;SHT30;52595;51.608;7.216;2023-04-25T04:25:56;4.31;95.34
65836;SHT30;52595;51.608;7.216;2023-04-25T04:28:22;4.33;95.66
65836;SHT30;52595;51.608;7.216;2023-04-25T04:30:47;4.33;96.23
65836;SHT30;52595;51.608;7.216;2023-04-25T04:33:16;4.32;96.00
65836;SHT30;52595;51.608;7.216;2023-04-25T04:35:41;4.32;96.14
65836;SHT30;52595;51.608;7.216;2023-04-25T04:38:07;4.33;95.90
65836;SHT30;52595;51.608;7.216;2023-04-25T04:40:32;4.31;95.64
65836;SHT30;52595;51.608;7.216;2023-04-25T04:42:58;4.28;95.66
65836;SHT30;52595;51.608;7.216;2023-04-25T04:45:23;4.26;95.66
65836;SHT30;52595;51.608;7.216;2023-04-25T04:47:49;4.26;95.33
65836;SHT30;52595;51.608;7.216;2023-04-25T04:50:15;4.32;95.79
65836;SHT30;52595;51.608;7.216;2023-04-25T04:52:41;4.32;95.39
65836;SHT30;52595;51.608;7.216;2023-04-25T04:55:07;4.35;95.41
65836;SHT30;52595;51.608;7.216;2023-04-25T04:57:33;4.35;95.11
65836;SHT30;52595;51.608;7.216;2023-04-25T04:59:59;4.39;95.39
65836;SHT30;52595;51.608;7.216;2023-04-25T05:02:25;4.45;95.64
65836;SHT30;52595;51.608;7.216;2023-04-25T05:04:51;4.52;95.83
65836;SHT30;52595;51.608;7.216;2023-04-25T05:07:18;4.54;95.80
65836;SHT30;52595;51.608;7.216;2023-04-25T05:09:43;4.59;95.87
65836;SHT30;52595;51.608;7.216;2023-04-25T05:12:09;4.66;95.82
65836;SHT30;52595;51.608;7.216;2023-04-25T05:14:35;4.76;95.85
65836;SHT30;52595;51.608;7.216;2023-04-25T05:17:00;4.83;96.04
65836;SHT30;52595;51.608;7.216;2023-04-25T05:19:26;4.87;95.80
65836;SHT30;52595;51.608;7.216;2023-04-25T05:21:51;4.90;95.99
65836;SHT30;52595;51.608;7.216;2023-04-25T05:24:17;4.96;95.51
65836;SHT30;52595;51.608;7.216;2023-04-25T05:26:42;4.97;95.84
65836;SHT30;52595;51.608;7.216;2023-04-25T05:29:08;5.04;95.99
65836;SHT30;52595;51.608;7.216;2023-04-25T05:31:35;5.11;95.98
65836;SHT30;52595;51.608;7.216;2023-04-25T05:34:01;5.20;96.04
65836;SHT30;52595;51.608;7.216;2023-04-25T05:36:26;5.30;95.65
65836;SHT30;52595;51.608;7.216;2023-04-25T05:38:52;5.31;95.73
65836;SHT30;52595;51.608;7.216;2023-04-25T05:41:17;5.38;95.98
65836;SHT30;52595;51.608;7.216;2023-04-25T05:43:43;5.35;95.39
65836;SHT30;52595;51.608;7.216;2023-04-25T05:46:12;5.39;95.59
65836;SHT30;52595;51.608;7.216;2023-04-25T05:48:38;5.45;95.70
65836;SHT30;52595;51.608;7.216;2023-04-25T05:51:03;5.52;95.55
65836;SHT30;52595;51.608;7.216;2023-04-25T05:53:29;5.51;95.38
65836;SHT30;52595;51.608;7.216;2023-04-25T05:55:54;5.44;95.41
65836;SHT30;52595;51.608;7.216;2023-04-25T05:58:19;5.39;95.39
65836;SHT30;52595;51.608;7.216;2023-04-25T06:00:45;5.34;95.32
65836;SHT30;52595;51.608;7.216;2023-04-25T06:03:11;5.32;95.62
65836;SHT30;52595;51.608;7.216;2023-04-25T06:05:38;5.28;95.67
65836;SHT30;52595;51.608;7.216;2023-04-25T06:08:04;5.23;95.83
65836;SHT30;52595;51.608;7.216;2023-04-25T06:10:29;5.21;95.51
65836;SHT30;52595;51.608;7.216;2023-04-25T06:12:55;5.31;95.63
65836;SHT30;52595;51.608;7.216;2023-04-25T06:15:20;5.37;95.35
65836;SHT30;52595;51.608;7.216;2023-04-25T06:17:45;5.51;95.51
65836;SHT30;52595;51.608;7.216;2023-04-25T06:20:11;5.66;95.60
65836;SHT30;52595;51.608;7.216;2023-04-25T06:22:36;5.93;95.41
65836;SHT30;52595;51.608;7.216;2023-04-25T06:25:02;5.99;94.61
65836;SHT30;52595;51.608;7.216;2023-04-25T06:27:29;6.06;93.92
65836;SHT30;52595;51.608;7.216;2023-04-25T06:29:55;6.16;92.93
65836;SHT30;52595;51.608;7.216;2023-04-25T06:32:20;6.26;92.25
65836;SHT30;52595;51.608;7.216;2023-04-25T06:34:45;6.33;91.17
65836;SHT30;52595;51.608;7.216;2023-04-25T06:37:11;6.57;90.87
65836;SHT30;52595;51.608;7.216;2023-04-25T06:39:36;6.73;90.05
65836;SHT30;52595;51.608;7.216;2023-04-25T06:42:02;6.63;88.56
65836;SHT30;52595;51.608;7.216;2023-04-25T06:44:27;6.70;89.73
65836;SHT30;52595;51.608;7.216;2023-04-25T06:46:54;6.80;89.11
65836;SHT30;52595;51.608;7.216;2023-04-25T06:49:20;6.68;88.57
65836;SHT30;52595;51.608;7.216;2023-04-25T06:51:45;6.67;88.50
65836;SHT30;52595;51.608;7.216;2023-04-25T06:54:10;6.56;88.23
65836;SHT30;52595;51.608;7.216;2023-04-25T06:56:36;6.71;88.19
65836;SHT30;52595;51.608;7.216;2023-04-25T06:59:01;6.64;87.80
65836;SHT30;52595;51.608;7.216;2023-04-25T07:01:27;6.56;88.12
65836;SHT30;52595;51.608;7.216;2023-04-25T07:03:52;6.91;88.48
65836;SHT30;52595;51.608;7.216;2023-04-25T07:06:17;6.98;87.78
65836;SHT30;52595;51.608;7.216;2023-04-25T07:08:43;7.08;87.17
65836;SHT30;52595;51.608;7.216;2023-04-25T07:11:08;7.18;87.14
65836;SHT30;52595;51.608;7.216;2023-04-25T07:13:34;7.16;86.70
65836;SHT30;52595;51.608;7.216;2023-04-25T07:15:59;7.01;86.54
65836;SHT30;52595;51.608;7.216;2023-04-25T07:18:25;7.11;86.71
65836;SHT30;52595;51.608;7.216;2023-04-25T07:20:50;7.14;86.15
65836;SHT30;52595;51.608;7.216;2023-04-25T07:23:16;7.26;86.92
65836;SHT30;52595;51.608;7.216;2023-04-25T07:25:41;7.26;86.15
65836;SHT30;52595;51.608;7.216;2023-04-25T07:28:07;7.31;86.04
65836;SHT30;52595;51.608;7.216;2023-04-25T07:30:32;7.14;86.02
65836;SHT30;52595;51.608;7.216;2023-04-25T07:32:58;7.26;85.63
65836;SHT30;52595;51.608;7.216;2023-04-25T07:35:24;7.35;85.87
65836;SHT30;52595;51.608;7.216;2023-04-25T07:37:49;7.36;84.77
65836;SHT30;52595;51.608;7.216;2023-04-25T07:40:15;7.55;84.56
65836;SHT30;52595;51.608;7.216;2023-04-25T07:42:41;7.48;83.14
65836;SHT30;52595;51.608;7.216;2023-04-25T07:45:07;7.42;84.62
65836;SHT30;52595;51.608;7.216;2023-04-25T07:47:32;7.62;83.95
65836;SHT30;52595;51.608;7.216;2023-04-25T07:49:58;7.90;82.77
65836;SHT30;52595;51.608;7.216;2023-04-25T07:52:23;7.87;82.46
65836;SHT30;52595;51.608;7.216;2023-04-25T07:54:49;7.97;81.02
65836;SHT30;52595;51.608;7.216;2023-04-25T07:57:15;7.79;80.65
65836;SHT30;52595;51.608;7.216;2023-04-25T07:59:42;7.73;79.89
65836;SHT30;52595;51.608;7.216;2023-04-25T08:02:07;7.70;79.95
65836;SHT30;52595;51.608;7.216;2023-04-25T08:04:33;7.89;79.51
65836;SHT30;52595;51.608;7.216;2023-04-25T08:06:58;8.01;79.13
65836;SHT30;52595;51.608;7.216;2023-04-25T08:09:23;8.08;78.72
65836;SHT30;52595;51.608;7.216;2023-04-25T08:11:49;8.48;79.18
65836;SHT30;52595;51.608;7.216;2023-04-25T08:14:15;8.59;78.05
65836;SHT30;52595;51.608;7.216;2023-04-25T08:16:40;8.51;78.60
65836;SHT30;52595;51.608;7.216;2023-04-25T08:19:06;8.30;77.76
65836;SHT30;52595;51.608;7.216;2023-04-25T08:21:31;8.41;78.52
65836;SHT30;52595;51.608;7.216;2023-04-25T08:23:57;8.42;76.85
65836;SHT30;52595;51.608;7.216;2023-04-25T08:26:24;8.36;75.76
65836;SHT30;52595;51.608;7.216;2023-04-25T08:28:49;8.34;77.89
65836;SHT30;52595;51.608;7.216;2023-04-25T08:31:15;8.26;76.72
65836;SHT30;52595;51.608;7.216;2023-04-25T08:33:40;8.47;77.73
65836;SHT30;52595;51.608;7.216;2023-04-25T08:36:06;8.57;76.99
65836;SHT30;52595;51.608;7.216;2023-04-25T08:38:31;8.64;75.80
65836;SHT30;52595;51.608;7.216;2023-04-25T08:40:57;8.44;75.34
65836;SHT30;52595;51.608;7.216;2023-04-25T08:43:26;8.62;75.48
65836;SHT30;52595;51.608;7.216;2023-04-25T08:45:54;9.18;75.12
65836;SHT30;52595;51.608;7.216;2023-04-25T08:48:24;8.91;71.82
65836;SHT30;52595;51.608;7.216;2023-04-25T08:50:53;9.43;72.34
65836;SHT30;52595;51.608;7.216;2023-04-25T08:53:26;9.87;70.76
65836;SHT30;52595;51.608;7.216;2023-04-25T08:55:56;9.69;70.82
65836;SHT30;52595;51.608;7.216;2023-04-25T08:58:22;9.19;70.05
65836;SHT30;52595;51.608;7.216;2023-04-25T09:00:49;9.13;70.87
65836;SHT30;52595;51.608;7.216;2023-04-25T09:03:15;9.12;71.53
65836;SHT30;52595;51.608;7.216;2023-04-25T09:05:41;8.98;72.29
65836;SHT30;52595;51.608;7.216;2023-04-25T09:08:07;8.83;73.22
65836;SHT30;52595;51.608;7.216;2023-04-25T09:10:33;8.96;73.22
65836;SHT30;52595;51.608;7.216;2023-04-25T09:13:09;8.76;72.54
65836;SHT30;52595;51.608;7.216;2023-04-25T09:15:50;8.62;72.56
65836;SHT30;52595;51.608;7.216;2023-04-25T09:18:27;8.57;72.75
65836;SHT30;52595;51.608;7.216;2023-04-25T09:21:11;8.52;72.55
65836;SHT30;52595;51.608;7.216;2023-04-25T09:23:41;9.02;72.13
65836;SHT30;52595;51.608;7.216;2023-04-25T09:26:07;9.70;69.88
65836;SHT30;52595;51.608;7.216;2023-04-25T09:28:33;9.80;64.71
65836;SHT30;52595;51.608;7.216;2023-04-25T09:31:00;10.44;64.25
65836;SHT30;52595;51.608;7.216;2023-04-25T09:33:33;10.46;64.17
65836;SHT30;52595;51.608;7.216;2023-04-25T09:36:07;10.18;60.57
65836;SHT30;52595;51.608;7.216;2023-04-25T09:38:40;9.94;62.29
65836;SHT30;52595;51.608;7.216;2023-04-25T09:41:07;10.07;61.44
65836;SHT30;52595;51.608;7.216;2023-04-25T09:43:33;9.87;63.39
65836;SHT30;52595;51.608;7.216;2023-04-25T09:45:58;10.12;63.42
65836;SHT30;52595;51.608;7.216;2023-04-25T09:48:27;10.05;61.87
65836;SHT30;52595;51.608;7.216;2023-04-25T09:51:12;10.01;60.44
65836;SHT30;52595;51.608;7.216;2023-04-25T09:53:40;10.05;61.57
65836;SHT30;52595;51.608;7.216;2023-04-25T09:56:08;10.37;59.96
65836;SHT30;52595;51.608;7.216;2023-04-25T09:58:34;10.01;59.33
65836;SHT30;52595;51.608;7.216;2023-04-25T10:01:03;9.46;60.33
65836;SHT30;52595;51.608;7.216;2023-04-25T10:03:30;9.46;61.41
65836;SHT30;52595;51.608;7.216;2023-04-25T10:06:01;10.07;60.49
65836;SHT30;52595;51.608;7.216;2023-04-25T10:08:35;10.28;59.39
65836;SHT30;52595;51.608;7.216;2023-04-25T10:11:04;10.48;58.17
65836;SHT30;52595;51.608;7.216;2023-04-25T10:13:30;10.56;58.06
65836;SHT30;52595;51.608;7.216;2023-04-25T10:16:04;10.44;57.15
65836;SHT30;52595;51.608;7.216;2023-04-25T10:18:31;10.27;58.99
65836;SHT30;52595;51.608;7.216;2023-04-25T10:21:02;10.15;59.60
65836;SHT30;52595;51.608;7.216;2023-04-25T10:23:29;9.40;58.66
65836;SHT30;52595;51.608;7.216;2023-04-25T10:25:55;9.06;60.83
65836;SHT30;52595;51.608;7.216;2023-04-25T10:28:21;8.81;61.84
65836;SHT30;52595;51.608;7.216;2023-04-25T10:31:07;8.52;64.00
65836;SHT30;52595;51.608;7.216;2023-04-25T10:33:38;8.41;65.31
65836;SHT30;52595;51.608;7.216;2023-04-25T10:36:14;8.30;66.74
65836;SHT30;52595;51.608;7.216;2023-04-25T10:38:44;8.36;67.16
65836;SHT30;52595;51.608;7.216;2023-04-25T10:41:11;8.42;68.30
65836;SHT30;52595;51.608;7.216;2023-04-25T10:43:38;8.54;67.91
65836;SHT30;52595;51.608;7.216;2023-04-25T10:46:15;8.42;68.75
65836;SHT30;52595;51.608;7.216;2023-04-25T10:48:52;8.57;68.91
65836;SHT30;52595;51.608;7.216;2023-04-25T10:54:08;8.58;70.44
65836;SHT30;52595;51.608;7.216;2023-04-25T10:56:39;8.47;69.05
65836;SHT30;52595;51.608;7.216;2023-04-25T11:01:45;8.48;67.88
65836;SHT30;52595;51.608;7.216;2023-04-25T11:04:31;8.83;67.50
65836;SHT30;52595;51.608;7.216;2023-04-25T11:09:36;9.98;64.84
65836;SHT30;52595;51.608;7.216;2023-04-25T11:12:01;9.83;63.94
65836;SHT30;52595;51.608;7.216;2023-04-25T11:14:27;10.21;64.68
65836;SHT30;52595;51.608;7.216;2023-04-25T11:16:57;9.70;64.49
65836;SHT30;52595;51.608;7.216;2023-04-25T11:19:23;9.86;64.60
65836;SHT30;52595;51.608;7.216;2023-04-25T11:21:49;10.17;64.42
65836;SHT30;52595;51.608;7.216;2023-04-25T11:24:16;10.18;62.62
65836;SHT30;52595;51.608;7.216;2023-04-25T11:26:42;9.95;64.49
65836;SHT30;52595;51.608;7.216;2023-04-25T11:29:08;10.31;61.90
65836;SHT30;52595;51.608;7.216;2023-04-25T11:31:33;10.68;62.22
65836;SHT30;52595;51.608;7.216;2023-04-25T11:33:59;11.16;54.20
65836;SHT30;52595;51.608;7.216;2023-04-25T11:36:25;12.40;51.23
65836;SHT30;52595;51.608;7.216;2023-04-25T11:38:52;13.89;49.57
65836;SHT30;52595;51.608;7.216;2023-04-25T11:41:19;13.06;46.25
65836;SHT30;52595;51.608;7.216;2023-04-25T11:43:44;13.74;47.27
65836;SHT30;52595;51.608;7.216;2023-04-25T11:46:10;14.05;46.20
65836;SHT30;52595;51.608;7.216;2023-04-25T11:48:38;13.94;46.90
65836;SHT30;52595;51.608;7.216;2023-04-25T11:51:04;14.30;46.68
65836;SHT30;52595;51.608;7.216;2023-04-25T11:53:29;14.80;46.17
65836;SHT30;52595;51.608;7.216;2023-04-25T11:55:54;14.94;44.18
65836;SHT30;52595;51.608;7.216;2023-04-25T11:58:21;15.28;45.23
65836;SHT30;52595;51.608;7.216;2023-04-25T12:00:46;14.52;44.70
65836;SHT30;52595;51.608;7.216;2023-04-25T12:03:12;14.57;46.19
65836;SHT30;52595;51.608;7.216;2023-04-25T12:05:37;15.04;45.85
65836;SHT30;52595;51.608;7.216;2023-04-25T12:08:10;16.12;44.88
65836;SHT30;52595;51.608;7.216;2023-04-25T12:10:38;15.66;44.32
65836;SHT30;52595;51.608;7.216;2023-04-25T12:13:18;13.74;47.64
65836;SHT30;52595;51.608;7.216;2023-04-25T12:15:44;12.87;50.85
65836;SHT30;52595;51.608;7.216;2023-04-25T12:18:09;12.83;50.74
65836;SHT30;52595;51.608;7.216;2023-04-25T12:20:35;11.67;50.32
65836;SHT30;52595;51.608;7.216;2023-04-25T12:23:05;10.83;51.67
65836;SHT30;52595;51.608;7.216;2023-04-25T12:25:41;10.39;52.32
65836;SHT30;52595;51.608;7.216;2023-04-25T12:33:17;10.76;53.00
65836;SHT30;52595;51.608;7.216;2023-04-25T12:35:42;10.25;52.74
65836;SHT30;52595;51.608;7.216;2023-04-25T12:38:08;10.34;53.61
65836;SHT30;52595;51.608;7.216;2023-04-25T12:40:33;9.99;53.72
65836;SHT30;52595;51.608;7.216;2023-04-25T12:42:59;10.15;54.25
65836;SHT30;52595;51.608;7.216;2023-04-25T12:45:24;10.29;54.27
65836;SHT30;52595;51.608;7.216;2023-04-25T12:47:49;10.46;53.64
65836;SHT30;52595;51.608;7.216;2023-04-25T12:50:15;10.01;53.98
65836;SHT30;52595;51.608;7.216;2023-04-25T12:52:40;10.44;54.69
65836;SHT30;52595;51.608;7.216;2023-04-25T12:55:06;11.14;53.97
65836;SHT30;52595;51.608;7.216;2023-04-25T12:57:31;11.81;50.99
65836;SHT30;52595;51.608;7.216;2023-04-25T12:59:57;11.24;53.01
65836;SHT30;52595;51.608;7.216;2023-04-25T13:02:22;12.42;49.52
65836;SHT30;52595;51.608;7.216;2023-04-25T13:04:48;13.35;48.48
65836;SHT30;52595;51.608;7.216;2023-04-25T13:07:13;14.43;47.29
65836;SHT30;52595;51.608;7.216;2023-04-25T13:09:38;15.83;44.57
65836;SHT30;52595;51.608;7.216;2023-04-25T13:12:04;14.85;46.42
65836;SHT30;52595;51.608;7.216;2023-04-25T13:14:30;15.48;45.42
65836;SHT30;52595;51.608;7.216;2023-04-25T13:16:55;13.21;49.90
65836;SHT30;52595;51.608;7.216;2023-04-25T13:19:21;11.79;53.25
65836;SHT30;52595;51.608;7.216;2023-04-25T13:21:46;10.56;59.76
65836;SHT30;52595;51.608;7.216;2023-04-25T13:24:12;9.71;64.98
65836;SHT30;52595;51.608;7.216;2023-04-25T13:26:37;8.82;71.21
65836;SHT30;52595;51.608;7.216;2023-04-25T13:29:02;8.14;77.69
65836;SHT30;52595;51.608;7.216;2023-04-25T13:31:29;7.91;78.25
65836;SHT30;52595;51.608;7.216;2023-04-25T13:33:55;8.85;82.98
65836;SHT30;52595;51.608;7.216;2023-04-25T13:36:20;9.50;78.45
65836;SHT30;52595;51.608;7.216;2023-04-25T13:38:45;11.13;73.79
65836;SHT30;52595;51.608;7.216;2023-04-25T13:41:13;12.97;70.57
65836;SHT30;52595;51.608;7.216;2023-04-25T13:43:42;12.45;67.22
65836;SHT30;52595;51.608;7.216;2023-04-25T13:46:08;10.27;66.32
65836;SHT30;52595;51.608;7.216;2023-04-25T13:48:33;9.69;67.42
65836;SHT30;52595;51.608;7.216;2023-04-25T13:50:59;9.71;69.05
65836;SHT30;52595;51.608;7.216;2023-04-25T13:53:24;10.63;66.82
65836;SHT30;52595;51.608;7.216;2023-04-25T13:55:50;11.61;61.89
65836;SHT30;52595;51.608;7.216;2023-04-25T13:58:15;14.04;58.52
65836;SHT30;52595;51.608;7.216;2023-04-25T14:00:41;14.20;55.56
65836;SHT30;52595;51.608;7.216;2023-04-25T14:03:08;14.77;54.00
65836;SHT30;52595;51.608;7.216;2023-04-25T14:05:35;14.44;53.44
65836;SHT30;52595;51.608;7.216;2023-04-25T14:08:04;14.72;49.70
65836;SHT30;52595;51.608;7.216;2023-04-25T14:10:29;16.56;47.60
65836;SHT30;52595;51.608;7.216;2023-04-25T14:12:55;16.44;45.56
65836;SHT30;52595;51.608;7.216;2023-04-25T14:15:20;16.52;44.87
65836;SHT30;52595;51.608;7.216;2023-04-25T14:17:46;16.75;45.14
65836;SHT30;52595;51.608;7.216;2023-04-25T14:20:13;17.75;42.91
65836;SHT30;52595;51.608;7.216;2023-04-25T14:22:39;17.14;39.93
65836;SHT30;52595;51.608;7.216;2023-04-25T14:25:08;16.77;40.83
65836;SHT30;52595;51.608;7.216;2023-04-25T14:27:34;15.05;43.54
65836;SHT30;52595;51.608;7.216;2023-04-25T14:29:59;12.93;48.86
65836;SHT30;52595;51.608;7.216;2023-04-25T14:32:25;12.22;50.74
65836;SHT30;52595;51.608;7.216;2023-04-25T14:34:50;13.31;49.06
65836;SHT30;52595;51.608;7.216;2023-04-25T14:37:16;13.78;48.28
65836;SHT30;52595;51.608;7.216;2023-04-25T14:39:41;13.71;47.81
65836;SHT30;52595;51.608;7.216;2023-04-25T14:42:06;14.29;46.87
65836;SHT30;52595;51.608;7.216;2023-04-25T14:44:32;14.40;52.58
65836;SHT30;52595;51.608;7.216;2023-04-25T14:46:57;13.21;55.55
65836;SHT30;52595;51.608;7.216;2023-04-25T14:49:23;12.89;57.11
65836;SHT30;52595;51.608;7.216;2023-04-25T14:51:48;12.45;57.39
65836;SHT30;52595;51.608;7.216;2023-04-25T14:54:15;12.40;57.97
65836;SHT30;52595;51.608;7.216;2023-04-25T14:56:40;12.08;58.10
65836;SHT30;52595;51.608;7.216;2023-04-25T14:59:06;11.95;58.33
65836;SHT30;52595;51.608;7.216;2023-04-25T15:01:32;10.75;58.48
65836;SHT30;52595;51.608;7.216;2023-04-25T15:03:57;10.44;59.30
65836;SHT30;52595;51.608;7.216;2023-04-25T15:06:22;10.35;59.92
65836;SHT30;52595;51.608;7.216;2023-04-25T15:08:51;10.88;59.72
65836;SHT30;52595;51.608;7.216;2023-04-25T15:11:17;11.10;58.97
65836;SHT30;52595;51.608;7.216;2023-04-25T15:13:43;10.73;58.33
65836;SHT30;52595;51.608;7.216;2023-04-25T15:16:08;11.22;57.83
65836;SHT30;52595;51.608;7.216;2023-04-25T15:18:34;11.74;55.72
65836;SHT30;52595;51.608;7.216;2023-04-25T15:20:59;13.00;53.69
65836;SHT30;52595;51.608;7.216;2023-04-25T15:23:24;12.96;52.12
65836;SHT30;52595;51.608;7.216;2023-04-25T15:25:50;12.04;53.10
65836;SHT30;52595;51.608;7.216;2023-04-25T15:28:16;11.71;52.81
65836;SHT30;52595;51.608;7.216;2023-04-25T15:30:43;12.38;52.83
65836;SHT30;52595;51.608;7.216;2023-04-25T15:33:08;12.93;51.84
65836;SHT30;52595;51.608;7.216;2023-04-25T15:35:33;13.00;52.40
65836;SHT30;52595;51.608;7.216;2023-04-25T15:37:59;12.15;54.59
65836;SHT30;52595;51.608;7.216;2023-04-25T15:40:24;10.99;58.81
65836;SHT30;52595;51.608;7.216;2023-04-25T15:42:51;10.19;61.10
65836;SHT30;52595;51.608;7.216;2023-04-25T15:45:18;10.45;61.08
65836;SHT30;52595;51.608;7.216;2023-04-25T15:47:44;10.18;62.59
65836;SHT30;52595;51.608;7.216;2023-04-25T15:50:10;9.83;63.20